weather.gov     
National Weather Service

Terminal Aerodrome Forecast
NWS Homepage
This page is being discontinued on March 12, 2014.
The same data is available at this site. Please update your bookmarks.
Thank you, and we apologize for the inconvenience.
Please send an email to SR-SRH.Webmaster@noaa.gov with any concerns.


Current Version
Previous Version:    01  02  03  04  05  06  07  08  09  10  11  12  13  14  15  16  17  18  19  20  21  22  23  24  25  26  27  28  29  30  
   31  32  33  
[Printable]
517
FTUS46 KMFR 230500
TAFOTH
TAF
KOTH 230528Z 2306/2406 18011G17KT P6SM -SHRA SCT028 BKN040 OVC050
     FM230900 19014G22KT P6SM -RA SCT012 OVC025
     FM231300 17012KT P6SM -SHRA SCT010 BKN020
     FM232000 13014G25KT 5SM -RA BR BKN012 OVC025=


U.S. Dept. of Commerce
NOAA National Weather Service
1325 East West Highway
Silver Spring, MD 20910
E-mail: w-nws.webmaster@noaa.gov
Page last modified: May 16, 2007
NATIONAL WEATHER SERVICE: for Safety, for Work, for Fun - FOR LIFE